Time;durP1;ratioP1;P1;durP2;ratioP2;P2;SDS_P1;SDS_P2;PMS_P1;PMS_P2;Temp;Humidity;BMP_temperature;BMP_pressure;BME280_temperature;BME280_humidity;BME280_pressure;Samples;Min_cycle;Max_cycle;Signal;HPM_P1;HPM_P2
2023/12/31 00:00:15;;;;;;;17.65;3.40;;;21.00;99.90;;;;;;5052253;28;20072;-71
2023/12/31 00:02:43;;;;;;;21.83;4.55;;;20.90;99.90;;;;;;5050463;28;20064;-70
2023/12/31 00:05:10;;;;;;;19.63;4.00;;;20.70;99.90;;;;;;5052064;28;20033;-71
2023/12/31 00:07:37;;;;;;;17.33;3.60;;;20.60;99.90;;;;;;5051952;28;20055;-70
2023/12/31 00:10:07;;;;;;;19.75;3.90;;;20.40;99.90;;;;;;5062164;28;20406;-70
2023/12/31 00:12:34;;;;;;;18.98;3.58;;;20.40;99.90;;;;;;5058645;28;20024;-73
2023/12/31 00:15:02;;;;;;;21.67;4.13;;;20.40;99.90;;;;;;5057368;28;21004;-70
2023/12/31 00:17:29;;;;;;;20.30;3.45;;;20.70;99.90;;;;;;5035721;28;20524;-70
2023/12/31 00:19:57;;;;;;;24.85;4.38;;;20.80;99.90;;;;;;5064981;28;20032;-71
2023/12/31 00:22:24;;;;;;;26.92;3.70;;;20.80;99.90;;;;;;5054442;28;20095;-70
2023/12/31 00:24:54;;;;;;;21.58;3.38;;;20.90;99.90;;;;;;5061546;28;20090;-71
2023/12/31 00:27:22;;;;;;;23.63;3.92;;;20.90;99.90;;;;;;5051554;28;20087;-69
2023/12/31 00:29:50;;;;;;;21.58;4.50;;;21.10;99.90;;;;;;5049396;28;20124;-70
2023/12/31 00:32:17;;;;;;;28.70;4.68;;;21.20;99.90;;;;;;5057280;28;20029;-70
2023/12/31 00:34:45;;;;;;;23.67;4.05;;;21.30;99.90;;;;;;5053673;28;20059;-70
2023/12/31 00:37:12;;;;;;;18.83;3.85;;;21.30;99.90;;;;;;5043230;28;20040;-70
2023/12/31 00:39:39;;;;;;;18.13;4.18;;;21.30;99.90;;;;;;5055358;28;20086;-71
2023/12/31 00:42:07;;;;;;;16.15;3.47;;;21.30;99.90;;;;;;5057875;28;20025;-70
2023/12/31 00:44:34;;;;;;;21.45;3.55;;;21.40;99.90;;;;;;5056253;28;20067;-73
2023/12/31 00:47:01;;;;;;;13.68;3.10;;;21.60;99.90;;;;;;5057881;28;20032;-70
2023/12/31 00:49:28;;;;;;;21.45;3.92;;;21.70;99.90;;;;;;5059151;28;20132;-70
2023/12/31 00:51:56;;;;;;;25.95;3.45;;;21.90;99.90;;;;;;5054860;28;20463;-71
2023/12/31 00:54:23;;;;;;;17.60;3.22;;;22.20;99.90;;;;;;5063027;28;20025;-70
2023/12/31 00:56:51;;;;;;;24.00;3.33;;;22.20;99.00;;;;;;5059264;28;20021;-70
2023/12/31 00:59:18;;;;;;;18.30;3.20;;;22.60;97.60;;;;;;5057501;28;20481;-70
2023/12/31 01:01:45;;;;;;;23.85;3.13;;;22.50;96.40;;;;;;5055746;28;20041;-71
2023/12/31 01:04:15;;;;;;;15.13;3.00;;;22.20;96.00;;;;;;5055215;28;20154;-70
2023/12/31 01:06:43;;;;;;;21.90;2.90;;;22.00;96.50;;;;;;5057504;28;20482;-70
2023/12/31 01:09:11;;;;;;;19.02;2.45;;;21.80;96.40;;;;;;5042079;28;20102;-71
2023/12/31 01:11:39;;;;;;;17.45;2.28;;;21.90;96.40;;;;;;5055156;28;20454;-71
2023/12/31 01:14:06;;;;;;;21.30;3.08;;;21.90;96.50;;;;;;5060839;28;20111;-70
2023/12/31 01:16:33;;;;;;;19.58;3.38;;;22.00;96.40;;;;;;5061199;28;20029;-70
2023/12/31 01:19:01;;;;;;;16.35;3.00;;;22.10;96.30;;;;;;5057458;28;20036;-71
2023/12/31 01:21:28;;;;;;;19.95;2.60;;;22.50;95.50;;;;;;5055362;28;20041;-70
2023/12/31 01:23:57;;;;;;;16.63;2.63;;;22.60;95.00;;;;;;5052677;28;20047;-72
2023/12/31 01:26:25;;;;;;;14.60;2.42;;;22.60;95.20;;;;;;5054827;28;20028;-71
2023/12/31 01:28:52;;;;;;;16.50;2.35;;;22.70;95.10;;;;;;5055218;28;20449;-71
2023/12/31 01:31:24;;;;;;;23.80;2.90;;;22.80;94.70;;;;;;5064580;28;20021;-71
2023/12/31 01:33:52;;;;;;;19.20;3.08;;;22.90;94.50;;;;;;5051554;28;20059;-71
2023/12/31 01:36:24;;;;;;;24.75;3.33;;;23.00;94.30;;;;;;5055158;28;20358;-70
2023/12/31 01:38:51;;;;;;;19.98;3.80;;;22.70;94.90;;;;;;5051942;28;20021;-71
2023/12/31 01:41:19;;;;;;;15.93;2.50;;;22.70;94.50;;;;;;5062065;28;20115;-70
2023/12/31 01:43:46;;;;;;;20.40;3.42;;;22.60;94.30;;;;;;5056961;28;20027;-70
2023/12/31 01:46:28;;;;;;;18.45;3.40;;;22.70;94.80;;;;;;5050069;28;20110;-70
2023/12/31 01:48:56;;;;;;;16.10;2.55;;;22.60;94.60;;;;;;5050126;28;20036;-71
2023/12/31 01:51:26;;;;;;;13.43;2.55;;;22.60;95.00;;;;;;5051428;28;20029;-70
2023/12/31 01:53:55;;;;;;;15.25;2.78;;;22.60;94.60;;;;;;5056353;28;20070;-70
2023/12/31 01:56:23;;;;;;;15.63;2.47;;;22.60;94.30;;;;;;5054129;28;20047;-69
2023/12/31 01:58:50;;;;;;;17.35;2.72;;;22.60;94.20;;;;;;5049138;28;20405;-69
2023/12/31 02:01:18;;;;;;;19.98;2.75;;;22.50;94.40;;;;;;5064060;28;20095;-69
2023/12/31 02:03:45;;;;;;;15.10;2.72;;;22.60;94.40;;;;;;5064965;28;20023;-69
2023/12/31 02:06:13;;;;;;;24.95;2.90;;;22.60;94.20;;;;;;5057618;28;20029;-69
2023/12/31 02:08:41;;;;;;;12.52;2.22;;;22.60;94.30;;;;;;5055859;28;20020;-71
2023/12/31 02:11:09;;;;;;;25.55;2.55;;;22.40;94.80;;;;;;5056087;28;20465;-69
2023/12/31 02:13:37;;;;;;;18.25;2.40;;;22.50;94.60;;;;;;5053495;28;20521;-69
2023/12/31 02:16:12;;;;;;;18.98;3.67;;;22.50;93.90;;;;;;5060769;28;20027;-70
2023/12/31 02:18:39;;;;;;;18.10;3.20;;;22.60;94.40;;;;;;5058839;28;20036;-69
2023/12/31 02:21:06;;;;;;;16.25;2.30;;;22.70;94.80;;;;;;5044086;28;20045;-70
2023/12/31 02:23:34;;;;;;;12.45;2.13;;;22.90;93.80;;;;;;5056336;28;20020;-70
2023/12/31 02:26:12;;;;;;;11.63;2.08;;;22.80;93.40;;;;;;5059376;28;20033;-70
2023/12/31 02:28:40;;;;;;;15.15;2.17;;;22.70;93.40;;;;;;5056615;28;20118;-70
2023/12/31 02:31:07;;;;;;;17.95;2.35;;;22.70;93.30;;;;;;5056996;28;20119;-70
2023/12/31 02:33:35;;;;;;;14.75;2.63;;;22.70;93.50;;;;;;5056314;28;20122;-70
2023/12/31 02:36:02;;;;;;;16.98;3.42;;;22.70;93.50;;;;;;5050084;28;20036;-70
2023/12/31 02:38:30;;;;;;;17.52;2.33;;;22.70;93.40;;;;;;5058247;28;20017;-70
2023/12/31 02:40:57;;;;;;;14.13;2.20;;;22.80;93.30;;;;;;5056955;28;20063;-70
2023/12/31 02:43:24;;;;;;;19.27;3.13;;;22.90;93.20;;;;;;5053080;28;20462;-69
2023/12/31 02:45:52;;;;;;;16.08;2.40;;;23.00;92.80;;;;;;5057782;28;20028;-70
2023/12/31 02:48:19;;;;;;;17.90;2.50;;;23.10;92.80;;;;;;5057989;28;20390;-70
2023/12/31 02:50:47;;;;;;;14.27;2.60;;;23.20;92.20;;;;;;5052103;28;20508;-69
2023/12/31 02:53:14;;;;;;;16.90;2.85;;;23.30;92.50;;;;;;5037406;28;20118;-69
2023/12/31 02:55:41;;;;;;;21.85;3.05;;;23.30;92.30;;;;;;5051345;28;20036;-69
2023/12/31 02:58:09;;;;;;;20.40;2.60;;;23.40;92.70;;;;;;5056033;28;20059;-69
2023/12/31 03:00:36;;;;;;;18.58;2.60;;;23.40;92.30;;;;;;5054158;28;20036;-69
2023/12/31 03:03:04;;;;;;;13.13;2.22;;;23.30;92.20;;;;;;5056807;28;20075;-69
2023/12/31 03:05:34;;;;;;;14.82;2.22;;;23.30;92.60;;;;;;5050961;28;20123;-71
2023/12/31 03:08:01;;;;;;;13.45;2.30;;;23.20;92.70;;;;;;5056886;28;20033;-69
2023/12/31 03:10:31;;;;;;;14.95;2.38;;;23.20;92.90;;;;;;5051971;28;20135;-70
2023/12/31 03:12:59;;;;;;;13.52;2.40;;;23.20;92.60;;;;;;5058804;28;20028;-70
2023/12/31 03:15:26;;;;;;;21.33;2.35;;;23.20;92.70;;;;;;5052940;28;20036;-70
2023/12/31 03:17:53;;;;;;;16.10;2.58;;;23.20;92.80;;;;;;5053359;28;20032;-70
2023/12/31 03:20:21;;;;;;;17.70;2.63;;;23.00;92.70;;;;;;5051775;28;20029;-70
2023/12/31 03:22:49;;;;;;;21.83;3.13;;;23.00;92.80;;;;;;5032425;28;20754;-70
2023/12/31 03:25:16;;;;;;;13.80;2.60;;;23.10;92.60;;;;;;5056994;28;20418;-67
2023/12/31 03:27:45;;;;;;;20.05;3.03;;;23.10;92.30;;;;;;5064068;28;20402;-69
2023/12/31 03:30:13;;;;;;;17.73;2.67;;;23.00;92.60;;;;;;5060193;28;20036;-69
2023/12/31 03:32:40;;;;;;;19.08;2.83;;;23.00;92.90;;;;;;5053075;28;20386;-69
2023/12/31 03:35:08;;;;;;;18.52;4.32;;;22.90;93.10;;;;;;5065505;28;20357;-70
2023/12/31 03:37:35;;;;;;;21.67;3.33;;;23.10;93.00;;;;;;5051477;28;20021;-70
2023/12/31 03:40:03;;;;;;;16.80;2.60;;;23.10;92.90;;;;;;5052821;28;20040;-69
2023/12/31 03:42:31;;;;;;;17.05;2.80;;;23.10;92.70;;;;;;5055456;28;20056;-69
2023/12/31 03:44:59;;;;;;;17.10;2.70;;;23.20;92.60;;;;;;5047968;28;20509;-69
2023/12/31 03:47:26;;;;;;;14.70;2.13;;;23.30;92.50;;;;;;5053728;28;20052;-69
2023/12/31 03:49:53;;;;;;;17.80;2.70;;;23.00;92.70;;;;;;5049418;28;20353;-69
2023/12/31 03:52:21;;;;;;;16.92;2.10;;;22.90;93.00;;;;;;5048208;28;20369;-69
2023/12/31 03:54:48;;;;;;;17.23;2.30;;;23.00;92.90;;;;;;5035626;28;20031;-68
2023/12/31 03:57:15;;;;;;;17.35;2.88;;;23.00;92.90;;;;;;5057779;28;20445;-69
2023/12/31 03:59:43;;;;;;;14.90;2.50;;;22.90;92.90;;;;;;5052864;28;20123;-69
2023/12/31 04:02:10;;;;;;;16.23;3.03;;;22.90;93.10;;;;;;5057361;28;20541;-69
2023/12/31 04:04:39;;;;;;;18.42;3.38;;;22.90;93.10;;;;;;5057927;28;20535;-68
2023/12/31 04:07:06;;;;;;;17.75;4.10;;;22.90;93.10;;;;;;5058374;28;20530;-72
2023/12/31 04:09:34;;;;;;;22.90;3.95;;;22.90;92.70;;;;;;5059360;28;20190;-70
2023/12/31 04:12:02;;;;;;;15.75;3.88;;;22.90;93.00;;;;;;5057386;28;20035;-70
2023/12/31 04:14:29;;;;;;;12.30;3.17;;;22.80;92.90;;;;;;5059166;28;20103;-70
2023/12/31 04:16:56;;;;;;;18.77;3.35;;;22.80;93.00;;;;;;5060545;28;20610;-69
2023/12/31 04:19:24;;;;;;;14.93;2.30;;;22.80;92.90;;;;;;5058835;28;20033;-69
2023/12/31 04:21:51;;;;;;;16.27;2.47;;;22.80;93.10;;;;;;5059045;28;20076;-70
2023/12/31 04:24:19;;;;;;;16.83;2.75;;;22.90;93.20;;;;;;5055122;28;20025;-70
2023/12/31 04:26:46;;;;;;;23.52;2.90;;;23.00;92.80;;;;;;5057027;28;20056;-70
2023/12/31 04:29:14;;;;;;;18.75;2.72;;;22.80;92.90;;;;;;5057404;28;20114;-69
2023/12/31 04:31:43;;;;;;;22.42;3.70;;;22.90;93.20;;;;;;5058082;28;20033;-69
2023/12/31 04:34:10;;;;;;;24.25;3.42;;;22.90;92.90;;;;;;5040326;28;20047;-70
2023/12/31 04:36:37;;;;;;;26.08;4.88;;;22.80;93.00;;;;;;5059585;28;20024;-70
2023/12/31 04:39:07;;;;;;;19.52;3.55;;;22.90;93.00;;;;;;5054273;28;20113;-69
2023/12/31 04:41:34;;;;;;;17.55;3.45;;;22.90;92.90;;;;;;5057150;28;20048;-71
2023/12/31 04:44:01;;;;;;;20.83;3.95;;;22.80;92.80;;;;;;5057210;28;20461;-71
2023/12/31 04:46:29;;;;;;;17.83;3.75;;;22.70;92.60;;;;;;5054212;28;20112;-70
2023/12/31 04:48:56;;;;;;;19.88;3.65;;;22.50;93.00;;;;;;5034071;28;20034;-70
2023/12/31 04:51:30;;;;;;;21.13;4.00;;;22.50;93.20;;;;;;5054181;28;20029;-70
2023/12/31 04:53:58;;;;;;;24.70;3.75;;;22.30;93.40;;;;;;5054387;28;20633;-69
2023/12/31 04:56:27;;;;;;;17.33;3.33;;;22.40;93.40;;;;;;5034560;28;20070;-70
2023/12/31 04:58:56;;;;;;;19.15;3.13;;;22.50;93.20;;;;;;5054318;28;20033;-71
2023/12/31 05:01:26;;;;;;;14.82;3.22;;;22.50;93.40;;;;;;5050933;28;20083;-71
2023/12/31 05:03:53;;;;;;;17.60;3.35;;;22.40;93.50;;;;;;5045841;28;21033;-70
2023/12/31 05:06:20;;;;;;;19.02;4.30;;;22.40;93.40;;;;;;5033153;28;20482;-71
2023/12/31 05:08:48;;;;;;;18.77;3.25;;;22.30;93.40;;;;;;5048053;28;20037;-70
2023/12/31 05:11:16;;;;;;;22.05;3.53;;;22.20;93.70;;;;;;5052371;28;20058;-70
2023/12/31 05:13:44;;;;;;;16.63;3.05;;;22.10;94.30;;;;;;5064636;28;20052;-70
2023/12/31 05:16:15;;;;;;;14.00;3.10;;;22.20;94.40;;;;;;5069557;28;20524;-70
2023/12/31 05:18:46;;;;;;;18.02;2.63;;;22.10;94.70;;;;;;5058089;28;20020;-72
2023/12/31 05:21:13;;;;;;;13.07;3.00;;;22.10;94.60;;;;;;5053212;28;20032;-72
2023/12/31 05:23:40;;;;;;;20.17;2.53;;;22.10;94.80;;;;;;5052510;28;20029;-72
2023/12/31 05:26:08;;;;;;;13.07;2.60;;;22.10;94.90;;;;;;5053865;28;20438;-72
2023/12/31 05:28:35;;;;;;;11.40;2.30;;;22.20;95.00;;;;;;5062990;28;20135;-72
2023/12/31 05:31:03;;;;;;;13.90;2.85;;;22.10;94.90;;;;;;5063530;28;20066;-72
2023/12/31 05:33:30;;;;;;;21.83;2.75;;;22.10;95.10;;;;;;5058217;28;20029;-72
2023/12/31 05:35:57;;;;;;;16.52;3.38;;;22.20;95.10;;;;;;5056554;28;20025;-72
2023/12/31 05:38:25;;;;;;;11.27;2.35;;;22.20;94.80;;;;;;5055522;28;20025;-70
2023/12/31 05:40:52;;;;;;;13.43;2.33;;;22.20;94.70;;;;;;5056585;28;20170;-71
2023/12/31 05:43:19;;;;;;;22.85;2.72;;;22.20;94.80;;;;;;5036881;28;20037;-71
2023/12/31 05:45:46;;;;;;;16.17;3.05;;;22.20;94.70;;;;;;5056512;28;20580;-71
2023/12/31 05:48:14;;;;;;;15.90;3.28;;;22.20;94.70;;;;;;5058816;28;20021;-71
2023/12/31 05:50:42;;;;;;;17.20;2.58;;;22.20;94.70;;;;;;5060560;28;20052;-71
2023/12/31 05:53:09;;;;;;;10.93;3.10;;;22.20;95.00;;;;;;5059514;28;20075;-71
2023/12/31 05:55:36;;;;;;;12.90;2.55;;;22.30;95.10;;;;;;5037091;28;20033;-71
2023/12/31 05:58:04;;;;;;;11.57;2.50;;;22.30;95.00;;;;;;5058311;28;20025;-71
2023/12/31 06:00:31;;;;;;;15.80;2.33;;;22.30;94.90;;;;;;5037797;28;20397;-71
2023/12/31 06:02:58;;;;;;;19.48;2.53;;;22.30;95.10;;;;;;5061209;28;20167;-73
2023/12/31 06:05:26;;;;;;;24.30;3.38;;;22.40;95.10;;;;;;5040249;28;20385;-71
2023/12/31 06:07:53;;;;;;;13.40;2.80;;;22.40;94.70;;;;;;5057054;28;20094;-72
2023/12/31 06:10:21;;;;;;;11.90;2.20;;;22.40;94.90;;;;;;5057440;28;20315;-71
2023/12/31 06:12:48;;;;;;;15.30;2.58;;;22.40;94.80;;;;;;5056789;28;20457;-71
2023/12/31 06:15:15;;;;;;;14.05;3.25;;;22.40;95.10;;;;;;5045191;28;20034;-70
2023/12/31 06:17:43;;;;;;;16.00;2.45;;;22.50;94.90;;;;;;5061062;28;20102;-70
2023/12/31 06:20:10;;;;;;;11.38;2.80;;;22.50;94.80;;;;;;5058776;28;20040;-70
2023/12/31 06:22:38;;;;;;;17.40;3.15;;;22.40;94.60;;;;;;5036854;28;20021;-71
2023/12/31 06:25:05;;;;;;;13.20;2.80;;;22.40;94.60;;;;;;5056779;28;20032;-73
2023/12/31 06:27:33;;;;;;;17.67;2.45;;;22.40;94.70;;;;;;5055034;28;20481;-71
2023/12/31 06:30:00;;;;;;;13.73;2.65;;;22.20;94.80;;;;;;5056574;28;20025;-71
2023/12/31 06:32:27;;;;;;;15.02;3.20;;;22.30;94.90;;;;;;5053546;28;20041;-71
2023/12/31 06:34:55;;;;;;;16.27;2.47;;;22.40;94.70;;;;;;5058541;28;20100;-71
2023/12/31 06:37:22;;;;;;;14.20;2.65;;;22.30;94.80;;;;;;5061412;28;20024;-70
2023/12/31 06:39:51;;;;;;;16.52;2.30;;;22.20;94.70;;;;;;5048560;28;20074;-71
2023/12/31 06:42:18;;;;;;;14.70;3.20;;;22.20;94.60;;;;;;5064666;28;20033;-70
2023/12/31 06:44:46;;;;;;;12.82;2.17;;;22.10;94.60;;;;;;5054394;28;20025;-71
2023/12/31 06:47:13;;;;;;;18.83;2.72;;;22.00;95.00;;;;;;5052275;28;20033;-71
2023/12/31 06:49:41;;;;;;;18.23;3.17;;;22.10;95.00;;;;;;5053401;28;20390;-72
2023/12/31 06:52:08;;;;;;;15.50;2.95;;;22.10;95.10;;;;;;5054329;28;20129;-71
2023/12/31 06:54:35;;;;;;;22.02;3.05;;;22.10;94.80;;;;;;5054270;28;20035;-71
2023/12/31 06:57:03;;;;;;;15.93;2.58;;;22.20;94.80;;;;;;5054703;28;20032;-70
2023/12/31 06:59:30;;;;;;;13.70;3.08;;;22.10;95.00;;;;;;5055209;28;20025;-70
2023/12/31 07:01:58;;;;;;;16.38;3.30;;;22.00;95.00;;;;;;5066151;28;20040;-70
2023/12/31 07:04:26;;;;;;;14.38;2.80;;;22.10;95.10;;;;;;5064612;28;20480;-70
2023/12/31 07:06:53;;;;;;;18.48;3.08;;;22.20;95.20;;;;;;5042089;28;20503;-71
2023/12/31 07:09:21;;;;;;;14.77;2.58;;;22.20;95.00;;;;;;5057816;28;20501;-71
2023/12/31 07:11:48;;;;;;;17.30;3.55;;;22.10;95.10;;;;;;5036083;28;20442;-71
2023/12/31 07:14:15;;;;;;;12.55;2.67;;;22.10;94.90;;;;;;5058963;28;20064;-70
2023/12/31 07:16:43;;;;;;;18.10;2.33;;;22.10;95.00;;;;;;5055480;28;20467;-71
2023/12/31 07:19:10;;;;;;;20.48;3.15;;;22.00;94.90;;;;;;5057498;28;20029;-72
2023/12/31 07:21:37;;;;;;;11.48;2.42;;;21.80;95.50;;;;;;5063095;28;20071;-71
2023/12/31 07:24:05;;;;;;;19.33;3.10;;;21.80;95.50;;;;;;5063427;28;20024;-72
2023/12/31 07:26:32;;;;;;;15.05;3.58;;;21.90;95.30;;;;;;5037255;28;20022;-72
2023/12/31 07:29:00;;;;;;;13.30;2.70;;;21.80;95.30;;;;;;5059752;28;20541;-72
2023/12/31 07:31:27;;;;;;;11.88;2.88;;;21.60;95.80;;;;;;5059022;28;20065;-72
2023/12/31 07:33:54;;;;;;;16.48;2.92;;;21.70;95.50;;;;;;5059325;28;20028;-72
2023/12/31 07:36:22;;;;;;;13.90;2.28;;;21.60;95.70;;;;;;5044354;28;20410;-72
2023/12/31 07:38:49;;;;;;;14.23;2.28;;;21.70;95.90;;;;;;5058953;28;20025;-72
2023/12/31 07:41:16;;;;;;;22.55;2.70;;;21.60;95.80;;;;;;5059651;28;20390;-71
2023/12/31 07:43:44;;;;;;;16.50;2.28;;;21.60;95.60;;;;;;5060897;28;20033;-72
2023/12/31 07:46:11;;;;;;;15.80;2.03;;;21.70;95.50;;;;;;5062762;28;20074;-72
2023/12/31 07:48:39;;;;;;;18.88;2.83;;;21.70;95.70;;;;;;5060713;28;20112;-72
2023/12/31 07:51:08;;;;;;;16.15;2.28;;;21.70;95.60;;;;;;5057309;28;20104;-72
2023/12/31 07:53:36;;;;;;;12.65;2.13;;;21.60;95.50;;;;;;5061463;28;20021;-72
2023/12/31 07:56:03;;;;;;;13.98;2.70;;;21.60;95.50;;;;;;5061036;28;20120;-72
2023/12/31 07:58:30;;;;;;;11.90;2.13;;;21.70;95.60;;;;;;5062943;28;20107;-72
2023/12/31 08:00:59;;;;;;;16.40;3.05;;;21.50;95.60;;;;;;5059825;28;20358;-72
2023/12/31 08:03:28;;;;;;;16.27;3.33;;;21.60;95.70;;;;;;5058777;28;20028;-72
2023/12/31 08:05:55;;;;;;;21.42;4.05;;;21.60;95.60;;;;;;5063932;28;20029;-72
2023/12/31 08:08:24;;;;;;;17.85;3.20;;;21.60;95.40;;;;;;5061061;28;20029;-72
2023/12/31 08:10:51;;;;;;;16.55;3.63;;;21.70;95.70;;;;;;5055148;28;20041;-73
2023/12/31 08:13:19;;;;;;;18.60;3.22;;;21.60;95.70;;;;;;5065349;28;20365;-72
2023/12/31 08:15:46;;;;;;;14.75;2.90;;;21.60;95.80;;;;;;5064403;28;20025;-72
2023/12/31 08:18:14;;;;;;;17.45;3.72;;;21.60;95.60;;;;;;5057364;28;20021;-72
2023/12/31 08:20:42;;;;;;;13.10;2.63;;;21.70;95.70;;;;;;5043106;28;20067;-72
2023/12/31 08:23:10;;;;;;;18.27;3.35;;;21.70;95.80;;;;;;5062558;28;20424;-72
2023/12/31 08:25:37;;;;;;;12.13;2.83;;;21.50;95.80;;;;;;5058339;28;20071;-71
2023/12/31 08:28:05;;;;;;;16.13;2.80;;;21.50;96.10;;;;;;5051756;28;20096;-72
2023/12/31 08:30:34;;;;;;;14.23;3.10;;;21.40;96.40;;;;;;5033165;28;20029;-70
2023/12/31 08:33:01;;;;;;;16.40;3.65;;;21.60;96.10;;;;;;5051794;28;20032;-71
2023/12/31 08:35:28;;;;;;;17.20;2.90;;;21.50;96.10;;;;;;5051392;28;20053;-71
2023/12/31 08:37:56;;;;;;;14.15;2.80;;;21.50;96.20;;;;;;5051862;28;21090;-71
2023/12/31 08:40:23;;;;;;;14.25;3.13;;;21.30;96.40;;;;;;5054370;28;20394;-71
2023/12/31 08:42:51;;;;;;;12.35;3.03;;;21.30;96.50;;;;;;5032963;28;20108;-71
2023/12/31 08:45:18;;;;;;;16.63;3.03;;;21.40;96.40;;;;;;5053914;28;20078;-71
2023/12/31 08:47:46;;;;;;;17.13;2.95;;;21.40;96.60;;;;;;5053528;28;20032;-71
2023/12/31 08:50:14;;;;;;;19.83;2.80;;;21.40;96.50;;;;;;5037448;28;20025;-71
2023/12/31 08:52:45;;;;;;;14.48;3.13;;;21.50;96.20;;;;;;5058394;28;20025;-71
2023/12/31 08:55:12;;;;;;;19.17;3.58;;;21.50;96.40;;;;;;5056696;28;20035;-71
2023/12/31 08:57:48;;;;;;;14.35;2.63;;;21.30;97.00;;;;;;5058403;28;20021;-71
2023/12/31 09:00:19;;;;;;;24.48;3.67;;;21.30;97.10;;;;;;5057919;28;20094;-71
2023/12/31 09:02:47;;;;;;;18.33;3.80;;;21.30;97.20;;;;;;5055566;28;20040;-71
2023/12/31 09:05:14;;;;;;;13.98;3.67;;;21.10;97.80;;;;;;5064145;28;20461;-71
2023/12/31 09:07:42;;;;;;;11.38;3.03;;;21.00;98.00;;;;;;5058973;28;20016;-71
2023/12/31 09:10:09;;;;;;;13.27;2.70;;;20.90;98.40;;;;;;5062243;28;20052;-71
2023/12/31 09:12:37;;;;;;;18.25;3.38;;;20.90;98.70;;;;;;5055847;28;20028;-71
2023/12/31 09:15:06;;;;;;;16.27;3.08;;;20.90;99.30;;;;;;5040994;28;20046;-71
2023/12/31 09:17:35;;;;;;;14.98;3.20;;;20.70;99.80;;;;;;5042914;28;20032;-71
2023/12/31 09:20:05;;;;;;;22.05;3.40;;;20.60;99.90;;;;;;5059672;28;20035;-71
2023/12/31 09:22:33;;;;;;;21.60;3.60;;;20.40;99.90;;;;;;5061197;28;20025;-70
2023/12/31 09:25:01;;;;;;;12.77;3.58;;;20.20;99.90;;;;;;5061578;28;20492;-71
2023/12/31 09:27:28;;;;;;;15.27;3.45;;;20.20;99.90;;;;;;5060423;28;20032;-70
2023/12/31 09:29:55;;;;;;;11.70;3.83;;;20.20;99.90;;;;;;5057881;28;20028;-71
2023/12/31 09:32:23;;;;;;;19.25;6.00;;;20.10;99.90;;;;;;5056857;28;20033;-71
2023/12/31 09:34:50;;;;;;;19.38;5.38;;;19.80;99.90;;;;;;5060828;28;20031;-71
2023/12/31 09:37:21;;;;;;;18.08;4.60;;;19.50;99.90;;;;;;5063337;28;20016;-71
2023/12/31 09:39:48;;;;;;;17.50;3.85;;;19.40;99.90;;;;;;5056146;28;20024;-71
2023/12/31 09:42:20;;;;;;;21.60;4.32;;;19.60;99.90;;;;;;5058120;28;20049;-71
2023/12/31 09:44:50;;;;;;;10.65;3.03;;;19.60;99.90;;;;;;5056208;28;20040;-71
2023/12/31 09:47:18;;;;;;;17.58;3.95;;;19.60;99.90;;;;;;5055253;28;20024;-71
2023/12/31 09:49:46;;;;;;;15.57;3.88;;;19.60;99.90;;;;;;5056569;28;20454;-70
2023/12/31 09:52:15;;;;;;;18.98;4.30;;;19.70;99.90;;;;;;5054946;28;20025;-70
2023/12/31 09:54:43;;;;;;;19.45;5.25;;;19.60;99.90;;;;;;5057853;28;20043;-71
2023/12/31 09:57:11;;;;;;;21.60;3.85;;;19.50;99.90;;;;;;5042139;28;20037;-71
2023/12/31 09:59:39;;;;;;;17.15;2.72;;;19.40;99.90;;;;;;5065086;28;20025;-71
2023/12/31 10:02:08;;;;;;;37.25;13.27;;;19.30;99.90;;;;;;5034783;28;20446;-70
2023/12/31 10:04:36;;;;;;;32.20;12.15;;;19.40;99.90;;;;;;5052966;28;20057;-71
2023/12/31 10:07:03;;;;;;;37.55;11.70;;;19.30;99.90;;;;;;5057134;28;20031;-71
2023/12/31 10:09:32;;;;;;;30.60;10.30;;;19.30;99.90;;;;;;5060759;28;20425;-71
2023/12/31 10:12:00;;;;;;;27.25;8.90;;;19.20;99.90;;;;;;5053294;28;20025;-71
2023/12/31 10:14:28;;;;;;;22.55;6.40;;;19.20;99.90;;;;;;5051463;28;20021;-71
2023/12/31 10:16:55;;;;;;;19.60;6.32;;;19.20;99.90;;;;;;5047335;28;20025;-71
2023/12/31 10:19:23;;;;;;;14.63;5.25;;;19.20;99.90;;;;;;5049313;28;20450;-71
2023/12/31 10:21:50;;;;;;;21.17;5.50;;;19.20;99.90;;;;;;5051260;28;20465;-71
2023/12/31 10:24:29;;;;;;;21.13;4.90;;;19.20;99.90;;;;;;5052906;28;20021;-71
2023/12/31 10:27:04;;;;;;;19.48;5.35;;;19.20;99.90;;;;;;5046798;28;20461;-71
2023/12/31 10:29:35;;;;;;;19.50;5.68;;;19.20;99.90;;;;;;5050724;28;20612;-72
2023/12/31 10:32:03;;;;;;;21.70;4.88;;;19.20;99.90;;;;;;5052129;28;20103;-71
2023/12/31 10:34:31;;;;;;;16.13;4.10;;;19.10;99.90;;;;;;5052486;28;20036;-71
2023/12/31 10:37:06;;;;;;;14.77;4.55;;;19.10;99.90;;;;;;5055711;28;20029;-71
2023/12/31 10:39:38;;;;;;;18.15;4.70;;;19.10;99.90;;;;;;5050664;28;20020;-71
2023/12/31 10:42:07;;;;;;;22.00;4.25;;;19.20;99.90;;;;;;5053433;28;20458;-71
2023/12/31 10:44:38;;;;;;;19.20;4.65;;;19.20;99.90;;;;;;5054180;28;20025;-72
2023/12/31 10:47:09;;;;;;;20.50;3.88;;;19.20;99.90;;;;;;5054513;28;20388;-71
2023/12/31 10:49:46;;;;;;;20.95;4.80;;;19.20;99.90;;;;;;5055635;28;20359;-71
2023/12/31 10:52:19;;;;;;;21.00;4.22;;;19.20;99.90;;;;;;5038731;28;20082;-71
2023/12/31 10:54:52;;;;;;;27.80;3.90;;;19.20;99.90;;;;;;5058211;28;20473;-71
2023/12/31 10:57:23;;;;;;;16.67;3.67;;;19.20;99.90;;;;;;5053172;28;20394;-74
2023/12/31 10:59:52;;;;;;;15.65;3.17;;;19.30;99.90;;;;;;5056711;28;20347;-72
2023/12/31 11:02:21;;;;;;;10.35;2.83;;;19.30;99.90;;;;;;5057272;28;20044;-71
2023/12/31 11:04:49;;;;;;;15.05;3.13;;;19.40;99.90;;;;;;5036192;28;20541;-71
2023/12/31 11:07:18;;;;;;;13.57;3.63;;;19.50;99.90;;;;;;5056523;28;20405;-71
2023/12/31 11:09:46;;;;;;;25.20;3.78;;;19.40;99.90;;;;;;5058527;28;20053;-71
2023/12/31 11:12:15;;;;;;;13.45;2.92;;;19.40;99.90;;;;;;5041876;28;20458;-71
2023/12/31 11:14:48;;;;;;;18.58;3.58;;;19.30;99.90;;;;;;5055824;28;20038;-71
2023/12/31 11:17:33;;;;;;;14.25;2.80;;;19.20;99.90;;;;;;5057378;28;20029;-71
2023/12/31 11:20:21;;;;;;;12.43;2.67;;;19.20;99.90;;;;;;5038386;28;20033;-72
2023/12/31 11:23:02;;;;;;;17.65;3.70;;;19.30;99.90;;;;;;5060177;28;20048;-71
2023/12/31 11:25:32;;;;;;;12.95;2.83;;;19.30;99.90;;;;;;5057174;28;20021;-71
2023/12/31 11:28:00;;;;;;;20.20;3.78;;;19.30;99.90;;;;;;5037938;28;20033;-71
2023/12/31 11:30:47;;;;;;;17.40;3.50;;;19.20;99.90;;;;;;5055344;28;20016;-71
2023/12/31 11:33:27;;;;;;;15.48;4.10;;;19.20;99.90;;;;;;5064634;28;20048;-71
2023/12/31 11:35:57;;;;;;;17.42;3.90;;;19.10;99.90;;;;;;5057711;28;20033;-71
2023/12/31 11:38:27;;;;;;;20.08;4.32;;;19.20;99.90;;;;;;5057132;28;20033;-71
2023/12/31 11:40:54;;;;;;;15.98;3.45;;;19.10;99.90;;;;;;5038645;28;20045;-71
2023/12/31 11:43:23;;;;;;;19.00;4.00;;;19.20;99.90;;;;;;5057563;28;20036;-71
2023/12/31 11:45:51;;;;;;;16.17;4.15;;;19.10;99.90;;;;;;5070322;28;20020;-71
2023/12/31 11:48:25;;;;;;;16.30;4.25;;;19.10;99.90;;;;;;5068077;28;20025;-71
2023/12/31 11:50:56;;;;;;;19.02;4.20;;;19.10;99.90;;;;;;5055046;28;20029;-71
2023/12/31 11:53:30;;;;;;;16.92;4.30;;;19.00;99.90;;;;;;5053006;28;20029;-72
2023/12/31 11:56:01;;;;;;;22.23;4.38;;;19.00;99.90;;;;;;5054147;28;20061;-71
2023/12/31 11:58:29;;;;;;;19.55;3.60;;;19.00;99.90;;;;;;5050166;28;20029;-71
2023/12/31 12:00:57;;;;;;;13.93;3.42;;;19.00;99.90;;;;;;5052493;28;20037;-72
2023/12/31 12:03:24;;;;;;;19.95;4.07;;;19.00;99.90;;;;;;5057722;28;20121;-72
2023/12/31 12:05:51;;;;;;;15.25;3.90;;;18.90;99.90;;;;;;5049684;28;20033;-73
2023/12/31 12:08:20;;;;;;;21.13;3.63;;;18.90;99.90;;;;;;5052639;28;20367;-72
2023/12/31 12:10:47;;;;;;;15.40;3.05;;;18.90;99.90;;;;;;5061033;28;20102;-72
2023/12/31 12:13:15;;;;;;;18.67;4.45;;;18.90;99.90;;;;;;5053207;28;20456;-71
2023/12/31 12:15:43;;;;;;;15.00;4.20;;;18.90;99.90;;;;;;5054029;28;20033;-72
2023/12/31 12:18:28;;;;;;;17.23;4.10;;;18.90;99.90;;;;;;5052802;28;20032;-72
2023/12/31 12:20:55;;;;;;;14.23;4.18;;;18.90;99.90;;;;;;5062664;28;20389;-72
2023/12/31 12:23:25;;;;;;;22.33;4.38;;;18.90;99.90;;;;;;5055336;28;20067;-72
2023/12/31 12:25:52;;;;;;;20.27;5.28;;;18.90;99.90;;;;;;5056231;28;20110;-72
2023/12/31 12:28:20;;;;;;;18.35;4.05;;;18.90;99.90;;;;;;5055665;28;20499;-72
2023/12/31 12:30:50;;;;;;;21.15;4.35;;;18.90;99.90;;;;;;5060363;28;20776;-72
2023/12/31 12:33:17;;;;;;;19.17;3.95;;;18.90;99.90;;;;;;5043946;28;20021;-72
2023/12/31 12:35:45;;;;;;;20.50;4.25;;;18.90;99.90;;;;;;5063682;28;20377;-71
2023/12/31 12:38:13;;;;;;;12.68;3.75;;;18.90;99.90;;;;;;5062205;28;20032;-70
2023/12/31 12:40:41;;;;;;;18.45;3.65;;;18.90;99.90;;;;;;5059898;28;20464;-71